Tiempo atmosférico en la estación meteorológica de Madridejos, Toledo (690 m.)



Fecha
DESCASC
Temp. máxima en grados centígrados (hora)
DESCASC
Temp. mínima en grados centígrados (hora)
DESCASC
Temp. media en grados centígrados
DESCASC
Racha de viento máxima en m/sg (hora)
DESCASC
Velocidad máxima media en intervalos de 10 minutos(hora)
DESCASC
Precipitaciones diarias en mm
DESCASC
Precipitaciones de 00:00 a 06:00 en mm
DESCASC
Precipitaciones de 06:00 a 12:00 en mm
DESCASC
Precipitaciones de 12:00 a 18:00 en mm
DESCASC
Precipitaciones de 18:00 a 24:00 en mm
DESCASC
26-03-2020 16.8 (15:40) 3.7 (07:30) 10.2 13.89 (15:00) 7.5 (15:00) 0 0 0 0 0
25-03-2020 16.4 (17:20) 0.7 (07:50) 8.5 9.72 (14:50) 5.28 (22:50) 0 0 0 0 0
24-03-2020 11.8 (14:10) 6.9 (23:00) 9.4 17.22 (12:10) 10.56 (11:10) 0.2 0 0.2 0 0
23-03-2020 14.6 (16:10) 6.5 (05:50) 10.6 15.83 (19:30) 9.72 (19:30) 0.4 0 0.2 0 0.2
22-03-2020 10.8 (13:30) 4.3 (00:00) 7.6 10.56 (16:10) 6.39 (16:30) 5.2 0 0 4.6 0.6
21-03-2020 10.6 (16:30) 3.9 (00:00) 7.3 12.22 (10:00) 7.5 (10:10) 0.4 0 0 0.4 0
20-03-2020 16.5 (16:50) 6.6 (00:00) 11.5 16.11 (17:40) 9.17 (17:30) 0 0 0 0 0
19-03-2020 15.8 (16:20) 5.1 (00:00) 10.5 16.39 (17:50) 9.44 (18:00) 0 0 0 0 0
18-03-2020 14 (14:00) 7.4 (00:00) 10.7 16.39 (15:10) 9.17 (15:10) 0 0 0 0 0
17-03-2020 14.5 (14:50) 0.4 (00:00) 7.5 -- (--) -- (--) -- 0 0.2 -- 0
16-03-2020 11.2 (00:00) 2.9 (00:00) 7 11.39 (05:40) 6.94 (05:40) 9.8 3.4 0 6.4 0
15-03-2020 21.3 (15:10) 4.7 (00:00) 13 -- (--) -- (--) 12.4 0 0 0.8 11.6
14-03-2020 22.8 (17:10) 4.2 (00:00) 13.5 6.94 (16:40) 3.33 (14:30) 0 0 0 0 0
13-03-2020 24.3 (15:20) 7.1 (06:00) 15.7 10 (15:00) 4.72 (17:50) 0 0 0 0 0
12-03-2020 27.4 (15:00) 6.2 (00:00) 16.8 9.72 (17:50) 5 (18:10) 0 0 0 0 0
11-03-2020 27.7 (15:30) 5.1 (00:00) 16.4 8.89 (20:40) 3.89 (11:50) 0 0 0 0 0
10-03-2020 23.7 (17:30) 2.1 (00:00) 12.9 8.61 (13:50) 3.89 (13:50) 0 0 0 0 0
09-03-2020 17.9 (16:30) 4.1 (00:00) 11 -- (--) -- (--) 0 0 0 0 0
08-03-2020 18.7 (15:30) -0.6 (-00:0) 9.1 11.11 (16:30) 6.11 (16:30) 0 0 0 0 0
07-03-2020 15.3 (17:00) 1.4 (00:00) 8.4 11.94 (15:50) 6.39 (10:00) 0 0 0 0 0
06-03-2020 13 (15:40) 3.4 (00:00) 8.2 18.61 (16:40) 11.39 (10:10) 0 0 0 0 0
05-03-2020 16.2 (15:00) 6.7 (00:00) 11.5 18.33 (15:40) 10.83 (15:30) 0 0 0 0 0
04-03-2020 16.5 (16:40) 9.8 (22:10) 13.2 11.94 (17:00) 6.67 (00:40) 0 0 0 0 0
03-03-2020 14.5 (13:50) 4 (00:00) 9.3 -- (--) -- (--) -- 0 -- 0 0
02-03-2020 14.5 (13:00) 4.1 (00:00) 9.3 -- (--) -- (--) 0.2 0.2 0 0 0
01-03-2020 15.4 (16:00) 8.2 (00:00) 11.8 16.39 (23:50) 9.17 (23:59) 0.2 0 0 0 0.2
29-02-2020 14.8 (16:10) 5.8 (00:00) 10.3 16.94 (10:10) 11.39 (10:20) 0 0 0 0 0
28-02-2020 19.4 (16:40) 1.3 (00:00) 10.3 8.89 (12:20) 4.17 (18:30) 0 0 0 0 0

Gráficas

Temp. máximas Temp. mínimas Temp. medias Precipitaciones Rachas de viento máximas Velocidades máximas media en intervalos de 10 minutos

Datos horarios

Fecha y hora oficial Temperatura (ºC) Velocidad del viento (km/h) Dirección del viento Racha (km/h) Dirección de racha Precipitación (mm) Presión (hPa) Tendencia (hPa) Humedad (%)
2020-03-28 23:00:00 6 3 Oeste 7 Oeste 0 938.4 1.4 70
2020-03-28 22:00:00 8.4 4 Sur 8 Sur 0 938 1.3 64
2020-03-28 21:00:00 10.3 4 Sur 9 Sudeste 0 937.7 1.3 52
2020-03-28 20:00:00 11.8 3 Sudeste 10 Sur 0 937 0.9 48
2020-03-28 19:00:00 13.1 4 Este 26 Nordeste 0 936.7 0.5 41
2020-03-28 18:00:00 13.5 11 Este 31 Este 0 936.4 -0.1 37
2020-03-28 17:00:00 13.6 10 Este 34 Este 0 936.1 -0.7 37
2020-03-28 16:00:00 13.6 16 Este 36 Este 0 936.2 -0.8 37
2020-03-28 15:00:00 13.2 14 Este 34 Este 0 936.5 -0.9 33
2020-03-28 14:00:00 12.4 17 Este 34 Este 0 936.8 -0.8 32
2020-03-28 13:00:00 11.5 19 Este 32 Este 0 937 -0.3 42
2020-03-28 12:00:00 9.4 15 Este 27 Sudeste 0 937.4 0.5 60
2020-03-28 11:00:00 7.7 12 Este 24 Este 0 937.6 1.3 71
2020-03-28 10:00:00 6.2 15 Este 35 Este 0 937.3 1.6 75
2020-03-28 09:00:00 4.3 9 Nordeste 19 Nordeste 0 936.9 1.3 82
2020-03-28 08:00:00 2.3 9 Este 19 Este 0 936.3 1.4 89
2020-03-28 07:00:00 1.7 9 Nordeste 17 Nordeste 0 935.7 1.3 87
2020-03-28 06:00:00 0.6 4 Oeste 14 Oeste 0 935.6 1.2 90
2020-03-28 05:00:00 0 7 Noroeste 18 Nordeste 0.2 934.9 -0.1 89
2020-03-28 04:00:00 0.6 9 Nordeste 15 Nordeste 0 934.4 -0.1 90
2020-03-28 03:00:00 1.5 10 Este 17 Nordeste 0 934.4 0.3 90
2020-03-28 02:00:00 1.6 10 Norte 18 Nordeste 0 935 1.2 90
2020-03-28 01:00:00 2.2 9 Nordeste 18 Este 0 934.5 1 89
2020-03-28 00:00:00 2.2 11 Este 20 Este 0 934.1 0.8 88
2020-03-27 23:00:00 3.4 14 Este 24 Sudeste 0 933.8 1.3 87
2020-03-27 22:00:00 4.1 15 Este 35 Este 0 933.5 1.5 85
2020-03-27 21:00:00 4.6 24 Este 36 Este 0 933.3 2 82
2020-03-27 20:00:00 5.3 17 Este 28 Este 0 932.5 1.5 81
2020-03-27 19:00:00 5.8 19 Este 35 Este 0 932 1 79
2020-03-27 18:00:00 6.3 19 Este 37 Este 0 931.3 0.2 77
2020-03-27 17:00:00 6.2 22 Este 42 Este 0 931 -0.3 77
2020-03-27 16:00:00 5.8 22 Este 43 Este 0 931 -0.3 81
2020-03-27 15:00:00 5.5 27 Este 42 Este 0.2 931.1 -0.2 82
2020-03-27 14:00:00 5.3 26 Este 41 Nordeste 0.2 931.3 0.7 86
2020-03-27 13:00:00 4.1 24 Nordeste 37 Nordeste 1.2 931.3 1.5 87
2020-03-27 12:00:00 3.8 22 Nordeste 45 Este 0.4 931.3 2.1 87
2020-03-27 11:00:00 4.2 28 Este 47 Este 0 930.6 1.9 82
2020-03-27 10:00:00 4.8 31 Este 50 Este 0 929.8 1.7 75
2020-03-27 09:00:00 4.7 29 Este 44 Este 0 929.2 1.5 75
2020-03-27 08:00:00 4.6 26 Este 39 Este 0 928.7 0.8 78
2020-03-27 07:00:00 4.7 20 Este 41 Este 0 928.1 0.2 80
2020-03-27 06:00:00 4.5 13 Este 30 Este 0 927.7 -0.6 78
2020-03-27 05:00:00 5.2 15 Sudeste 27 Sudeste 0 927.9 -0.9 71
2020-03-27 04:00:00 3.4 9 Este 17 Este 0 927.9 -1.2 78
2020-03-27 03:00:00 3.5 10 Este 18 Este 0 928.3 -0.9 74
2020-03-27 02:00:00 3.5 7 Este 20 Este 0 928.8 -0.3 72
2020-03-27 01:00:00 5.2 6 Este 19 Este 0 929.1 0.1 62
2020-03-27 00:00:00 6.2 2 Norte 24 Nordeste 0 929.2 0.5 59
2020-03-26 23:00:00 8 3 Sur 29 Norte 0 929.1 1.2 50
2020-03-26 22:00:00 8.6 10 Norte 31 Norte 0 929 1.5 49
2020-03-26 21:00:00 10 11 Norte 33 Norte 0 928.7 1.5 43
2020-03-26 20:00:00 11.5 8 Norte 32 Norte 0 927.9 0.8 36
2020-03-26 19:00:00 13.9 11 Norte 42 Norte 0 927.5 0.1 26
2020-03-26 18:00:00 15.2 24 Noroeste 43 Noroeste 0 927.2 -0.5 22
2020-03-26 17:00:00 16.6 19 Noroeste 45 Noroeste 0 927.1 -1.2 19
2020-03-26 16:00:00 16.5 22 Noroeste 43 Noroeste 0 927.4 -1.6 17
2020-03-26 15:00:00 16.1 27 Noroeste 50 Norte 0 927.7 -2.1 18
2020-03-26 14:00:00 15.3 18 Oeste 42 Oeste 0 928.3 -2.1 25
2020-03-26 13:00:00 13.6 15 Noroeste 40 Norte 0 929 -1.4 27
2020-03-26 12:00:00 10.8 10 Norte 30 Norte 0 929.8 -0.4 36
2020-03-26 11:00:00 9.2 10 Nordeste 24 Norte 0 930.4 0.2 37
2020-03-26 10:00:00 8.1 9 Norte 23 Norte 0 930.4 0.7 43
2020-03-26 09:00:00 7.2 9 Norte 23 Oeste 0 930.2 0.5 55
2020-03-26 08:00:00 4.8 11 Oeste 24 Oeste 0 930.2 0.7 90
2020-03-26 07:00:00 4.7 10 Oeste 23 Oeste 0 929.7 -0.1 86
2020-03-26 06:00:00 5.6 7 Noroeste 13 Noroeste 0 929.7 -0.8 86
2020-03-26 05:00:00 3.9 9 Oeste 23 Oeste 0 929.5 -1.6 86
2020-03-26 04:00:00 4.5 12 Oeste 23 Oeste 0 929.8 -1.8 87
2020-03-26 03:00:00 4.4 7 Oeste 21 Oeste 0 930.5 -1.5 84
2020-03-26 02:00:00 5.5 3 Oeste 22 Este 0 931.1 -1.2 79
2020-03-26 01:00:00 6.7 9 Sudeste 25 Sur 0 931.6 -0.4 80
2020-03-26 00:00:00 7.6 10 Sudeste 27 Sudeste 0 932 -0.1 78
2020-03-25 23:00:00 8.5 13 Sudeste 35 Sudeste 0 932.3 0.3 74
2020-03-25 22:00:00 9 8 Sudoeste 13 Oeste 0 932 0 71
2020-03-25 21:00:00 10.6 8 Sudoeste 22 Sudoeste 0 932.1 0 62
2020-03-25 20:00:00 12.5 8 Oeste 20 Noroeste 0 932 -0.4 54
2020-03-25 19:00:00 14.9 10 Oeste 23 Noroeste 0 932 -1 43
2020-03-25 18:00:00 16 12 Noroeste 32 Oeste 0 932.1 -1.6 34
2020-03-25 17:00:00 15.9 13 Noroeste 35 Oeste 0 932.4 -2 31
2020-03-25 16:00:00 15.9 15 Noroeste 35 Oeste 0 933 -2.2 30
2020-03-25 15:00:00 15.5 15 Noroeste 35 Oeste 0 933.7 -1.8 42
2020-03-25 14:00:00 14.3 4 Norte 33 Oeste 0 934.4 -1.4 48
2020-03-25 13:00:00 13.2 6 Oeste 24 Oeste 0 935.2 -0.6 50
2020-03-25 12:00:00 11.2 9 Sudoeste 23 Sudoeste 0 935.5 -0.3 56
2020-03-25 11:00:00 9.6 8 Sudeste 22 Este 0 935.8 0.3 65
2020-03-25 10:00:00 8 11 Sudeste 23 Sudeste 0 935.8 0.4 77
2020-03-25 09:00:00 5.3 4 Noroeste 17 Oeste 0 935.8 0.4 91
2020-03-25 08:00:00 1.2 5 Noroeste 18 Oeste 0 935.5 0 90
2020-03-25 07:00:00 1.2 6 Noroeste 18 Oeste 0 935.4 -0.3 87
2020-03-25 06:00:00 3.5 5 Este 18 Sur 0 935.4 -0.7 87
2020-03-25 05:00:00 4.3 7 Sudeste 19 Este 0 935.5 -0.7 87
2020-03-25 04:00:00 4.6 7 Este 19 Este 0 935.7 -0.5 85
2020-03-25 03:00:00 5.6 6 Sudeste 23 Sudeste 0 936.1 0 82
2020-03-25 02:00:00 6.6 11 Sudeste 25 Sudeste 0 936.2 0.2 80
2020-03-25 01:00:00 6.9 10 Sudeste 24 Este 0 936.2 0.6 80
2020-03-25 00:00:00 7.1 9 Sudeste 24 Sudeste 0 936.1 0.7 82
2020-03-24 23:00:00 6.9 10 Sudeste 28 Sudeste 0 936 1.4 80
2020-03-24 22:00:00 7.7 14 Sudeste 27 Este 0 935.6 1.3 77
2020-03-24 21:00:00 8.1 13 Este 33 Sudeste 0 935.4 1.2 75
2020-03-24 20:00:00 9 18 Sudeste 42 Sudeste 0 934.6 0.8 73
2020-03-24 19:00:00 10.2 23 Sudeste 42 Sudeste 0 934.3 0.6 67
2020-03-24 18:00:00 11 23 Este 54 Este 0 934.2 0.3 68
2020-03-24 17:00:00 11.4 28 Este 55 Este 0 933.8 -0.3 65
2020-03-24 16:00:00 11.3 29 Este 60 Este 0 933.7 -0.8 66
2020-03-24 15:00:00 11.4 34 Este 56 Este 0 933.9 -0.6 64
2020-03-24 14:00:00 11.4 37 Este 61 Este 0 934.1 -0.2 66
2020-03-24 13:00:00 10.9 32 Este 62 Este 0 934.5 0.1 68
2020-03-24 12:00:00 11.2 37 Este 60 Este 0 934.5 0.5 72
2020-03-24 11:00:00 10.1 35 Este 57 Este 0 934.3 0.7 75
2020-03-24 10:00:00 9.6 20 Este 35 Este 0.2 934.4 0.8 82
2020-03-24 09:00:00 8.6 19 Este 51 Este 0 934 0.5 85
2020-03-24 08:00:00 8.5 27 Este 43 Este 0 933.6 0 85
2020-03-24 07:00:00 8.2 25 Este 42 Este 0 933.6 -0.2 89
2020-03-24 06:00:00 8.5 22 Este 35 Este 0 933.5 -0.5 87
2020-03-24 05:00:00 8.3 16 Este 29 Este 0 933.6 -0.6 89
2020-03-24 04:00:00 8.7 22 Este 35 Nordeste 0 933.8 -0.7 84
2020-03-24 03:00:00 8.8 13 Nordeste 30 Este 0 934 -0.5 84
2020-03-24 02:00:00 9.1 21 Este 45 Este 0 934.2 -0.4 82
2020-03-24 01:00:00 9.2 26 Este 51 Este 0 934.5 0.1 82
2020-03-24 00:00:00 8.8 24 Este 48 Este 0.2 934.5 0.4 87
2020-03-23 23:00:00 9 21 Este 32 Este 0 934.6 0.9 83
2020-03-23 22:00:00 9.5 22 Este 33 Este 0 934.4 1.3 80
2020-03-23 21:00:00 9.5 17 Este 32 Este 0 934.1 1.7 81
2020-03-23 20:00:00 9.8 24 Este 57 Este 0 933.7 1.6 76
2020-03-23 19:00:00 11.8 20 Este 37 Este 0 933.1 1.1 64
2020-03-23 18:00:00 12.3 27 Este 55 Este 0 932.4 0 64
2020-03-23 17:00:00 12.7 31 Este 56 Este 0 932.1 -0.8 64
2020-03-23 16:00:00 14.4 18 Sudeste 45 Sudeste 0 932 -1.5 51
2020-03-23 15:00:00 13.9 24 Este 41 Este 0 932.4 -1.4 55
2020-03-23 14:00:00 13.9 19 Sudeste 42 Sudeste 0 932.9 -1.1 57
2020-03-23 13:00:00 12.1 19 Este 42 Este 0 933.5 -0.6 62
2020-03-23 12:00:00 10.9 21 Este 37 Este 0 933.8 0.3 72
2020-03-23 11:00:00 9.1 17 Este 33 Este 0 934 0.8 80
2020-03-23 10:00:00 8.2 20 Este 30 Este 0 934.1 1.2 89
2020-03-23 09:00:00 7.7 13 Nordeste 21 Este 0 933.5 0.9 91
2020-03-23 08:00:00 7 11 Nordeste 17 Nordeste 0 933.2 0.9 92
2020-03-23 07:00:00 6.9 10 Este 14 Nordeste 0.2 932.9 0.6 92
2020-03-23 06:00:00 6.6 9 Este 18 Este 0 932.6 0.1 91
2020-03-23 05:00:00 7 12 Este 17 Este 0 932.3 -0.2 91
2020-03-23 04:00:00 7.2 6 Este 21 Este 0 932.3 -0.3 90
2020-03-23 03:00:00 7.1 8 Este 20 Este 0 932.5 0 90
2020-03-23 02:00:00 7.4 8 Este 25 Sudeste 0 932.5 0.1 90
2020-03-23 01:00:00 7.2 11 Sudeste 17 Sudeste 0 932.6 0.6 88
2020-03-23 00:00:00 7.3 10 Este 18 Este 0 932.5 0.8 89
2020-03-22 23:00:00 7.7 11 Este 14 Este 0 932.4 1.3 88
2020-03-22 22:00:00 8.1 2 Oeste 27 Este 0.2 932 1.3 88
2020-03-22 21:00:00 8.4 11 Nordeste 22 Nordeste 0 931.7 1.6 88
2020-03-22 20:00:00 8.4 7 Nordeste 22 Nordeste 0.2 931.1 1 86
2020-03-22 19:00:00 9 15 Nordeste 29 Nordeste 0.2 930.7 0.9 83
2020-03-22 18:00:00 9.4 7 Norte 26 Nordeste 0 930.1 -0.1 78
2020-03-22 17:00:00 8.8 12 Norte 38 Norte 0 930.1 -0.5 79
2020-03-22 16:00:00 10.7 6 Norte 24 Oeste 0 929.8 -1.3 69
2020-03-22 15:00:00 8 8 Noroeste 28 Sudeste 4.6 930.2 -1.2 83
2020-03-22 14:00:00 10.7 8 Sur 25 Sur 0 930.6 -0.8 67
2020-03-22 13:00:00 10.4 9 Sudeste 24 Este 0 931.1 -0.2 68
2020-03-22 12:00:00 8.5 7 Este 21 Nordeste 0 931.4 0.4 77
2020-03-22 11:00:00 7.7 3 Norte 22 Norte 0 931.4 0.9 83
2020-03-22 10:00:00 6.3 8 Nordeste 22 Norte 0 931.3 1 89
2020-03-22 09:00:00 5.7 9 Este 18 Este 0 931 1.2 91
2020-03-22 08:00:00 5.4 8 Sudeste 19 Este 0 930.5 0.5 92
2020-03-22 07:00:00 5 5 Este 18 Este 0 930.3 0.3 92
2020-03-22 06:00:00 4.6 6 Este 19 Nordeste 0 929.8 -0.6 91
2020-03-22 05:00:00 4.9 5 Este 18 Este 0 930 -0.7 90
2020-03-22 04:00:00 5.2 7 Sudeste 21 Sudeste 0 930 -1.3 90
2020-03-22 03:00:00 5.1 8 Sudeste 19 Este 0 930.4 -1.1 90
2020-03-22 02:00:00 5 8 Este 18 Este 0 930.7 -1 90
2020-03-22 01:00:00 4.9 11 Este 18 Este 0 931.3 -0.2 90
2020-03-22 00:00:00 4.3 7 Este 17 Este 0 931.5 0.5 89
2020-03-21 23:00:00 4.3 7 Sudeste 15 Este 0 931.7 1 88
2020-03-21 22:00:00 4.6 9 Este 22 Este 0 931.5 0.9 86
2020-03-21 21:00:00 6.4 14 Este 24 Este 0 931 0.6 83
2020-03-21 20:00:00 7.7 14 Este 27 Este 0 930.7 0.2 81
2020-03-21 19:00:00 9.4 16 Este 27 Este 0 930.6 -0.1 74
2020-03-21 18:00:00 9.6 10 Sudeste 26 Sudeste 0 930.4 -0.9 71
2020-03-21 17:00:00 10.2 10 Sudeste 27 Sudeste 0 930.5 -1.4 67
2020-03-21 16:00:00 10.2 6 Sur 24 Sur 0 930.7 -1.7 63
2020-03-21 15:00:00 9.7 7 Sudoeste 23 Sur 0 931.3 -1.2 63
2020-03-21 14:00:00 9.1 7 Sur 25 Sur 0 931.9 -0.4 72
2020-03-21 13:00:00 8.4 9 Sudoeste 23 Sur 0.4 932.4 0.3 77
2020-03-21 12:00:00 8.4 12 Sudoeste 26 Sudoeste 0 932.5 1.1 79
2020-03-21 11:00:00 8.6 16 Sudoeste 42 Sudoeste 0 932.3 1.2 71
2020-03-21 10:00:00 7.5 26 Sudoeste 44 Sudoeste 0 932.1 1.1 78
2020-03-21 09:00:00 8.5 9 Sudeste 31 Sudeste 0 931.4 0.4 87
2020-03-21 08:00:00 8.2 19 Sudeste 36 Sudeste 0 931.1 -0.4 87
2020-03-21 07:00:00 7.7 14 Este 30 Este 0 931 -0.7 88
2020-03-21 06:00:00 7.6 17 Este 30 Este 0 931 -1.4 88
2020-03-21 05:00:00 7.4 18 Este 28 Este 0 931.5 -1.5 87
2020-03-21 04:00:00 7.3 15 Sudeste 28 Este 0 931.7 -1.6 87
2020-03-21 03:00:00 7.3 14 Este 22 Sudeste 0 932.4 -1.6 86
2020-03-21 02:00:00 7.2 12 Este 27 Este 0 933 -1.1 85
2020-03-21 01:00:00 7.4 15 Este 34 Este 0 933.3 -0.6 84
2020-03-21 00:00:00 7.8 17 Sudeste 34 Sudeste 0 934 0.2 81
2020-03-20 23:00:00 8.1 17 Sudeste 30 Sudeste 0 934.1 0.7 79
2020-03-20 22:00:00 8.3 19 Este 30 Este 0 933.9 0.7 81
2020-03-20 21:00:00 9.1 21 Este 45 Este 0 933.8 0.9 81
2020-03-20 20:00:00 10.5 25 Este 55 Este 0 933.4 0.4 74
2020-03-20 19:00:00 12 27 Este 55 Este 0 933.2 0 68
2020-03-20 18:00:00 13.6 33 Este 58 Este 0 932.9 -0.9 61
2020-03-20 17:00:00 15.8 26 Este 56 Este 0 933 -1.3 49
2020-03-20 16:00:00 16 21 Este 48 Sudeste 0 933.2 -1.8 45
2020-03-20 15:00:00 15.9 22 Este 46 Sudeste 0 933.8 -1.6 47
2020-03-20 14:00:00 15 25 Este 46 Sudeste 0 934.3 -1.2 48
2020-03-20 13:00:00 13.7 24 Este 41 Sudeste 0 935 -0.9 55
2020-03-20 12:00:00 12.7 25 Este 50 Este 0 935.4 -0.4 59
2020-03-20 11:00:00 11.6 24 Este 45 Este 0 935.5 0.2 66
2020-03-20 10:00:00 10 22 Este 35 Este 0 935.9 0.6 72
2020-03-20 09:00:00 8.1 15 Este 27 Este 0 935.8 0.8 83
2020-03-20 08:00:00 6.9 16 Este 26 Sudeste 0 935.3 0.2 86
2020-03-20 07:00:00 6.7 9 Sudeste 23 Este 0 935.3 0.1 87
2020-03-20 06:00:00 7 10 Sudeste 23 Este 0 935 -0.4 85
2020-03-20 05:00:00 7.4 10 Sudeste 31 Sudeste 0 935.1 -0.8 82
2020-03-20 04:00:00 7.8 18 Este 31 Este 0 935.2 -0.8 83
2020-03-20 03:00:00 8.1 21 Este 32 Este 0 935.4 -1 86
2020-03-20 02:00:00 8.5 21 Este 33 Sudeste 0 935.9 -0.5 85
2020-03-20 01:00:00 8.6 19 Este 33 Este 0 936 -0.4 85
2020-03-20 00:00:00 9.1 21 Este 36 Este 0 936.4 -0.1 84
2020-03-19 23:00:00 9.6 21 Este 36 Este 0 936.4 0 81
2020-03-19 22:00:00 9.9 22 Este 36 Este 0 936.4 0.4 79
2020-03-19 21:00:00 10.2 22 Este 35 Este 0 936.5 0.6 77
2020-03-19 20:00:00 11.2 19 Este 46 Sudeste 0 936.4 0.3 72
2020-03-19 19:00:00 12.8 26 Este 57 Este 0 936 -0.6 62
2020-03-19 18:00:00 14.3 34 Este 59 Este 0 935.9 -1.2 57
2020-03-19 17:00:00 15.3 30 Este 59 Este 0 936.1 -2 53
2020-03-19 16:00:00 15.6 28 Este 57 Este 0 936.6 -2.4 50
2020-03-19 15:00:00 15.2 25 Este 42 Este 0 937.1 -2.5 51
2020-03-19 14:00:00 14.6 26 Este 50 Este 0 938.1 -2 54
2020-03-19 13:00:00 13.2 26 Este 51 Este 0 939 -1.2 62
2020-03-19 12:00:00 12 27 Este 55 Este 0 939.6 -0.5 69
2020-03-19 11:00:00 10.5 28 Este 53 Este 0 940.1 0.1 73
2020-03-19 10:00:00 9.2 25 Este 38 Este 0 940.2 0 79
2020-03-19 09:00:00 6.7 14 Sudeste 37 Este 0 940.1 -0.2 87
2020-03-19 08:00:00 5.4 17 Este 32 Este 0 940 -0.5 88
2020-03-19 07:00:00 5.2 22 Este 32 Este 0 940.2 -0.4 89
2020-03-19 06:00:00 5.3 17 Este 32 Este 0 940.3 -0.8 90
2020-03-19 05:00:00 5.6 17 Este 28 Este 0 940.5 -1.1 89
2020-03-19 04:00:00 5.5 16 Este 24 Este 0 940.6 -1.3 88
2020-03-19 03:00:00 5.7 14 Este 20 Este 0 941.1 -1.3 85
2020-03-19 02:00:00 6.3 9 Este 22 Este 0 941.6 -0.9 82
2020-03-19 01:00:00 7.2 14 Sudeste 26 Este 0 941.9 -0.7 76
2020-03-19 00:00:00 7.7 12 Sudeste 29 Este 0 942.4 0.1 67
2020-03-18 23:00:00 8.4 12 Sudeste 29 Este 0 942.5 0.5 65
2020-03-18 22:00:00 9.5 11 Sudeste 31 Este 0 942.6 0.9 64
2020-03-18 21:00:00 10.7 12 Sudeste 33 Este 0 942.3 0.6 60
2020-03-18 20:00:00 11.5 19 Este 35 Este 0 942 0 60
2020-03-18 19:00:00 12.5 18 Este 35 Este 0 941.7 -0.4 61
2020-03-18 18:00:00 12.7 13 Este 40 Este 0 941.7 -0.5 60
2020-03-18 17:00:00 13.5 27 Este 58 Este 0 942 -1 51
2020-03-18 16:00:00 13.6 32 Este 59 Este 0 942.1 -1.8 49
2020-03-18 15:00:00 13.9 30 Este 55 Este 0 942.2 -2.1 57
2020-03-18 14:00:00 14 28 Este 51 Este 0 943 -1.4 64
2020-03-18 13:00:00 12 24 Este 39 Este 0 943.9 -0.6 72
2020-03-18 12:00:00 11.3 24 Este 52 Este 0 944.3 -0.1 75
2020-03-18 11:00:00 10.6 31 Este 58 Este 0 944.4 0.1 77
2020-03-18 10:00:00 9.6 28 Este 37 Este 0 944.5 0.4 80
2020-03-18 09:00:00 8.6 16 Este 23 Este 0 944.4 0.3 85
2020-03-18 08:00:00 7.8 15 Este 27 Este 0 944.3 0 87
2020-03-18 07:00:00 7.4 18 Este 24 Este 0 944.1 0 87
2020-03-18 06:00:00 7.7 14 Este 28 Este 0 944.1 0.2 85
2020-03-18 05:00:00 8.3 14 Este 32 Este 0 944.3 0.2 84
2020-03-18 04:00:00 9.1 20 Este 51 Este 0 944.1 -0.2 80
2020-03-18 03:00:00 9.3 25 Este 47 Este 0 943.9 -0.9 80
2020-03-18 02:00:00 9.7 23 Este 38 Sudeste 0 944.1 -0.8 78
2020-03-18 01:00:00 10.2 23 Este 41 Sudeste 0 944.3 -0.3 78
2020-03-18 00:00:00 11 18 Este 37 Este 0 944.8 1.2 78
2020-03-17 23:00:00 11.5 21 Este 41 Este 0 944.9 1.8 80
2020-03-17 22:00:00 11.8 24 Este 37 Este 0 944.6 2.1 79
2020-03-17 21:00:00 11.4 25 Este 36 Este 0 943.6 1.5 84
2020-03-17 20:00:00 11.8 22 Este 46 Este 0 943.1 1.6 78
2020-03-17 19:00:00 13 27 Este 45 Este 0 942.5 1.4 72
2020-03-17 18:00:00 13.7 27 Este 50 Sudeste 0 942.1 0.9 70
2020-03-17 17:00:00 14.2 29 Este 61 Este 0 941.5 0 65
2020-03-17 16:00:00 14.1 30 Este -- -- -- 941.1 -0.7 66
2020-03-17 15:00:00 13.6 -- -- -- -- 0 941.2 -0.4 59
2020-03-17 14:00:00 13.4 29 Este 57 Este 0 941.5 0.2 64
2020-03-17 13:00:00 11.9 26 Este 56 Este 0 941.8 0.6 69
2020-03-17 12:00:00 11 33 Este 58 Este 0 941.6 0.9 65
2020-03-17 11:00:00 10.3 31 Este 52 Este 0.2 941.3 1.3 72
2020-03-17 10:00:00 6.7 7 Este 18 Nordeste 0 941.2 1.9 89
2020-03-17 09:00:00 3.3 4 Noroeste 17 Oeste 0 940.7 2.1 91
2020-03-17 08:00:00 1 6 Oeste 13 Oeste 0 940 1.9 92
2020-03-17 07:00:00 0.8 5 Oeste 17 Oeste 0 939.3 1.5 92
2020-03-17 06:00:00 1 7 Noroeste 17 Norte 0 938.6 0.9 92
2020-03-17 05:00:00 0.8 5 Noroeste 18 Nordeste 0 938.1 0.7 92
2020-03-17 04:00:00 0.9 6 Norte 18 Nordeste 0 937.8 0.6 91
2020-03-17 03:00:00 0.7 2 Oeste 15 Nordeste 0 937.7 0.7 90
2020-03-17 02:00:00 1.7 8 Este 18 Este 0 937.4 1 90
2020-03-17 01:00:00 2.1 10 Este 15 Este 0 937.2 1.7 88
2020-03-17 00:00:00 3.2 8 Este 15 Nordeste 0 937 2.3 87
2020-03-16 23:00:00 4.4 10 Este 20 Sudeste 0 936.4 2.7 80
2020-03-16 22:00:00 4.2 8 Sudeste 20 Este 0 935.5 2.4 79
2020-03-16 21:00:00 4.7 18 Este 34 Este 0 934.7 2.2 77
2020-03-16 20:00:00 4.6 7 Nordeste 19 Nordeste 0 933.7 1.5 80
2020-03-16 19:00:00 4.8 4 Noroeste 19 Oeste 0 933.1 1.4 80
2020-03-16 18:00:00 4.7 8 Oeste 19 Oeste 0.2 932.5 0.8 81
2020-03-16 17:00:00 4.8 9 Oeste 23 Sudoeste 0.6 932.2 0.7 80
2020-03-16 16:00:00 5 7 Nordeste 18 Nordeste 2 931.7 0.1 69
2020-03-16 15:00:00 3.8 5 Nordeste 27 Sudeste 3.6 931.7 0 79
2020-03-16 14:00:00 6.6 14 Sudeste 28 Sur 0 931.5 0.1 68
2020-03-16 13:00:00 5.7 13 Sudoeste 28 Sudoeste 0 931.6 0.3 73
2020-03-16 12:00:00 5.5 14 Sudoeste 28 Sudoeste 0 931.7 0.8 71
2020-03-16 11:00:00 4.7 20 Sudoeste 28 Sudoeste 0 931.4 1 75
2020-03-16 10:00:00 4.4 16 Sudoeste 27 Sudoeste 0 931.3 1.6 76
2020-03-16 09:00:00 3.5 18 Sudoeste 27 Sudoeste 0 930.9 2 79
2020-03-16 08:00:00 2.9 10 Sudoeste 23 Sudoeste 0 930.4 1.6 84
2020-03-16 07:00:00 3.6 13 Sudoeste 33 Sudoeste 0 929.7 0.5 83
2020-03-16 06:00:00 5 25 Sudoeste 41 Sudoeste 0 928.9 -0.6 80
2020-03-16 05:00:00 5.7 15 Sudoeste 40 Sudoeste 1.2 928.8 -1.3 83
2020-03-16 04:00:00 7.7 17 Sudoeste 30 Sudoeste 0.4 929.2 -0.8 84
2020-03-16 03:00:00 9 15 Sudoeste 37 Sudoeste 1 929.5 -1.5 85
2020-03-16 02:00:00 10.5 13 Sur 34 Sur 0 930.1 -1.4 87
2020-03-16 01:00:00 10.6 17 Sur 39 Sur 0.8 930 -2.9 84
2020-03-16 00:00:00 11.2 21 Sur 41 Sur 2.2 931 -1.4 77
2020-03-15 23:00:00 10.7 11 Sur -- -- 3.8 931.5 0 82
2020-03-15 22:00:00 11.3 28 Sudoeste 48 Sudoeste 4.8 932.9 2.4 76
2020-03-15 21:00:00 11.1 31 Oeste 56 Oeste 0.8 932.4 1.5 79
2020-03-15 20:00:00 14.4 34 Oeste 59 Oeste 0 931.5 0.2 60
2020-03-15 19:00:00 16.4 9 Sudoeste 22 Oeste 0 930.5 -1.2 62
2020-03-15 18:00:00 16.9 11 Oeste 22 Oeste 0.2 930.9 -1.4 66
2020-03-15 17:00:00 16.3 11 Oeste -- -- 0.6 931.3 -2 50
2020-03-15 16:00:00 19.9 -- -- -- -- 0 931.7 -2.6 42
2020-03-15 15:00:00 21 21 Sudoeste -- -- 0 932.3 -2.8 42
2020-03-15 14:00:00 19.6 -- -- -- -- 0 933.3 -2.3 45
2020-03-15 13:00:00 20.3 17 Sudoeste 32 Oeste 0 934.3 -1.7 45
2020-03-15 12:00:00 18.6 13 Sudeste 25 Sur 0 935.1 -1 52
2020-03-15 11:00:00 14.9 9 Sudeste 28 Sudeste 0 935.6 -0.3 67
2020-03-15 10:00:00 10.6 13 Sudeste 28 Sudeste 0 936 0.3 90
2020-03-15 09:00:00 8.2 6 Sudeste 20 Este 0 936.1 0.5 92
2020-03-15 08:00:00 6.5 8 Sudeste 23 Sudeste 0 935.9 0.2 89
2020-03-15 07:00:00 4.9 3 Sudeste 16 Este 0 935.7 -0.4 79
2020-03-15 06:00:00 6 3 Este 21 Este 0 935.6 -0.9 78
2020-03-15 05:00:00 7.3 4 Este 19 Este 0 935.7 -1.1 78
2020-03-15 04:00:00 8 5 Este 21 Este 0 936.1 -0.9 72
2020-03-15 03:00:00 7.7 3 Nordeste 19 Este 0 936.5 -0.7 69
2020-03-15 02:00:00 8.8 3 Noroeste 10 Norte 0 936.8 -0.5 67
2020-03-15 01:00:00 9.5 3 Sur 25 Este 0 937 -0.2 63
2020-03-15 00:00:00 9.4 4 Noroeste 12 Norte 0 937.2 0 64
2020-03-14 23:00:00 9.9 5 Oeste 11 Norte 0 937.3 0.4 60
2020-03-14 22:00:00 12 5 Sudoeste 19 Sudoeste 0 937.2 0.6 55
2020-03-14 21:00:00 15.6 5 Sudoeste 19 Este 0 937.2 0.7 42
2020-03-14 20:00:00 18.1 10 Este 20 Este 0 936.9 0.3 37
2020-03-14 19:00:00 20.5 6 Este 20 Este 0 936.6 -0.3 31
2020-03-14 18:00:00 22.1 8 Sudeste 24 Este 0 936.5 -0.9 29
2020-03-14 17:00:00 22.5 7 Sur 25 Norte 0 936.6 -1.7 29
2020-03-14 16:00:00 22.4 7 Sudeste 24 Sur 0 936.9 -2.1 30
2020-03-14 15:00:00 21 9 Norte 23 Oeste 0 937.4 -2 36
2020-03-14 14:00:00 20.2 8 Este 22 Norte 0 938.3 -1.6 42
2020-03-14 13:00:00 19 5 Sudeste 18 Norte 0 939 -0.8 48
2020-03-14 12:00:00 17.2 6 Nordeste 14 Oeste 0 939.4 0.1 53
2020-03-14 11:00:00 15.1 2 Norte 12 Noroeste 0 939.9 1 61
2020-03-14 10:00:00 12.5 2 Nordeste 21 Este 0 939.8 1.6 68
2020-03-14 09:00:00 8.7 7 Este 21 Norte 0 939.3 1.4 83
2020-03-14 08:00:00 4.7 5 Norte 17 Sudoeste 0 938.9 1.2 87
2020-03-14 07:00:00 6 3 Sur 21 Este 0 938.2 0.5 84
2020-03-14 06:00:00 7.3 9 Este 22 Este 0 937.9 -0.1 84
2020-03-14 05:00:00 8.1 4 Este 18 Este 0 937.7 -0.3 83
2020-03-14 04:00:00 8.6 2 Este 6 Sudeste 0 937.7 -0.4 76
2020-03-14 03:00:00 9.7 0 Calma 6 Este 0 938 0.1 74
2020-03-14 02:00:00 10.9 3 Sudeste 10 Este 0 938 0.3 71
2020-03-14 01:00:00 11.5 4 Este 14 Sur 0 938.1 0.7 66
2020-03-14 00:00:00 13.6 6 Sudeste 17 Nordeste 0 937.9 1.2 62
2020-03-13 23:00:00 13.3 4 Oeste 18 Nordeste 0 937.7 1.8 62
2020-03-13 22:00:00 14.1 9 Este 21 Nordeste 0 937.4 1.9 61
2020-03-13 21:00:00 14.7 13 Oeste 24 Noroeste 0 936.7 1.9 57
2020-03-13 20:00:00 16.3 13 Oeste 24 Oeste 0 935.9 1.1 44
2020-03-13 19:00:00 20.9 9 Sudoeste -- -- 0 935.5 0.5 33
2020-03-13 18:00:00 22.4 16 Sudoeste 31 Sudoeste 0 934.8 -0.5 31
2020-03-13 17:00:00 23.5 13 Sudoeste 32 Sudoeste 0 934.8 -1.2 26
2020-03-13 16:00:00 23.7 9 Oeste 27 Sudoeste 0 935 -1.8 27
2020-03-13 15:00:00 23.4 8 Noroeste 36 Oeste 0 935.3 -2 27
2020-03-13 14:00:00 22.8 11 Sudoeste 27 Sur 0 936 -1.4 30
2020-03-13 13:00:00 21.7 9 Este 27 Sur 0 936.8 -0.6 37
2020-03-13 12:00:00 21.3 6 Este 23 Sur 0 937.3 0.1 39
2020-03-13 11:00:00 19.8 9 Sudeste 16 Sudoeste 0 937.4 0.6 44
2020-03-13 10:00:00 15.5 3 Sudeste 6 Sudeste 0 937.4 0.9 55
2020-03-13 09:00:00 10.3 4 Este 19 Este 0 937.2 0.8 70
2020-03-13 08:00:00 7.9 5 Oeste 20 Sudoeste 0 936.8 0.6 72
2020-03-13 07:00:00 7.8 4 Este 17 Este 0 936.5 0.2 71
2020-03-13 06:00:00 7.1 2 Noroeste 6 Noroeste 0 936.4 -0.3 73
2020-03-13 05:00:00 8.5 3 Este 18 Este 0 936.2 -0.8 70
2020-03-13 04:00:00 10.6 5 Sur 12 Sudeste 0 936.3 -1 66
2020-03-13 03:00:00 9.8 3 Sudoeste 10 Norte 0 936.7 -0.7 65
2020-03-13 02:00:00 10.9 6 Oeste 16 Norte 0 937 -0.3 62
2020-03-13 01:00:00 12.3 5 Sudoeste 18 Sudoeste 0 937.3 0.1 57
2020-03-13 00:00:00 13.4 9 Sudoeste 13 Oeste 0 937.4 0.2 54
2020-03-12 23:00:00 14.4 11 Oeste 24 Oeste 0 937.3 0.6 51
2020-03-12 22:00:00 13.4 9 Oeste 22 Oeste 0 937.2 0.6 57
2020-03-12 21:00:00 15.8 6 Oeste 24 Oeste 0 937.2 0.8 48
2020-03-12 20:00:00 18.3 9 Oeste 24 Oeste 0 936.7 0.5 41
2020-03-12 19:00:00 22.1 9 Sudoeste 31 Sudoeste 0 936.6 -0.2 32
2020-03-12 18:00:00 24.6 11 Oeste 35 Oeste 0 936.4 -1 26
2020-03-12 17:00:00 26.6 7 Sudoeste 32 Oeste 0 936.2 -2.2 23
2020-03-12 16:00:00 27 13 Sudoeste 33 Oeste 0 936.8 -2.6 21
2020-03-12 15:00:00 27.3 13 Sudoeste 33 Oeste 0 937.4 -2.6 19
2020-03-12 14:00:00 26.3 14 Oeste 34 Oeste 0 938.4 -1.9 22
2020-03-12 13:00:00 25.8 9 Sudoeste 24 Sudeste 0 939.4 -1.1 23
2020-03-12 12:00:00 22.2 11 Sudeste 26 Sur 0 940 -0.2 33
2020-03-12 11:00:00 18 10 Sur 17 Sur 0 940.3 0.3 45
2020-03-12 10:00:00 13.8 8 Sudeste 13 Sudeste 0 940.5 0.6 57
2020-03-12 09:00:00 10.1 4 Sur 11 Sudeste 0 940.2 0.4 68
2020-03-12 08:00:00 6.3 3 Sudeste 13 Oeste 0 940 0.1 77
2020-03-12 07:00:00 7.9 5 Sur 9 Sudoeste 0 939.9 -0.6 74
2020-03-12 06:00:00 6.9 4 Sudeste 6 Sudeste 0 939.8 -1.2 77
2020-03-12 05:00:00 8.6 4 Este 6 Sudeste 0 939.9 -1.8 78
2020-03-12 04:00:00 8.1 2 Nordeste 11 Oeste 0 940.5 -1.6 73
2020-03-12 03:00:00 10.6 3 Nordeste 13 Nordeste 0 941 -1.1 69
2020-03-12 02:00:00 11.4 4 Sudeste 18 Sudoeste 0 941.7 -0.4 65
2020-03-12 01:00:00 12 8 Sudoeste 14 Sudoeste 0 942.1 0.1 65
2020-03-12 00:00:00 11.8 8 Sudoeste 19 Norte 0 942.1 0.3 60
2020-03-11 23:00:00 13.8 9 Norte 21 Oeste 0 942.1 0.6 58
2020-03-11 22:00:00 15.5 7 Noroeste 24 Oeste 0 942 0.7 53
2020-03-11 21:00:00 19.4 10 Noroeste 32 Nordeste 0 941.8 0.5 41
2020-03-11 20:00:00 21.8 2 Sur 16 Sur 0 941.5 0.2 32
2020-03-11 19:00:00 24.5 6 Sudeste 13 Sur 0 941.3 -0.2 26
2020-03-11 18:00:00 26.3 5 Este 12 Sudeste 0 941.3 -0.7 22
2020-03-11 17:00:00 27.1 4 Nordeste 12 Este 0 941.3 -1.6 22
2020-03-11 16:00:00 26.8 4 Norte 11 Este 0 941.5 -2.1 21
2020-03-11 15:00:00 26.6 4 Sudoeste 12 Este 0 942 -2.3 22
2020-03-11 14:00:00 25.3 7 Sudeste 24 Este 0 942.9 -1.7 25
2020-03-11 13:00:00 23.5 6 Sudeste 24 Este 0 943.6 -0.9 29
2020-03-11 12:00:00 21.4 11 Sudeste 25 Sudeste 0 944.3 0 34
2020-03-11 11:00:00 18.4 10 Sur 17 Sur 0 944.6 0.4 42
2020-03-11 10:00:00 14.3 2 Sudeste 19 Este 0 944.5 0.6 56
2020-03-11 09:00:00 10.5 4 Sudeste 20 Sur 0 944.3 0.5 68
2020-03-11 08:00:00 5.4 2 Sudeste 17 Este 0 944.2 0.5 78
2020-03-11 07:00:00 5.6 3 Sudeste 17 Este 0 943.9 0 79
2020-03-11 06:00:00 5.4 3 Nordeste 19 Nordeste 0 943.8 -0.8 77
2020-03-11 05:00:00 5.7 3 Oeste 7 Sudoeste 0 943.7 -1.3 74
2020-03-11 04:00:00 6.7 4 Sudoeste 10 Sudoeste 0 943.9 -1.3 73
2020-03-11 03:00:00 7.7 8 Sudoeste 21 Sudoeste 0 944.6 -0.5 69
2020-03-11 02:00:00 8.2 9 Sudoeste 12 Sudoeste 0 945 -0.3 68
2020-03-11 01:00:00 8.3 5 Noroeste 17 Nordeste 0 945.2 0.2 60
2020-03-11 00:00:00 9.4 7 Sur 19 Sur 0 945.1 0.4 59
2020-03-10 23:00:00 11.1 10 Sudeste 19 Sur 0 945.3 1 51
2020-03-10 22:00:00 12.8 5 Nordeste 19 Sudoeste 0 945 0.8 48
2020-03-10 21:00:00 14.7 6 Oeste 18 Oeste 0 944.7 0.7 42
2020-03-10 20:00:00 18.4 4 Este 6 Nordeste 0 944.3 0.1 33
2020-03-10 19:00:00 21 3 Norte 16 Noroeste 0 944.2 -0.3 27
2020-03-10 18:00:00 23.1 9 Noroeste 19 Noroeste 0 944 -1 22
2020-03-10 17:00:00 23.3 11 Noroeste 27 Oeste 0 944.2 -1.5 24
2020-03-10 16:00:00 22.8 8 Noroeste 30 Noroeste 0 944.5 -1.8 24
2020-03-10 15:00:00 22 8 Norte 28 Norte 0 945 -1.6 26
2020-03-10 14:00:00 20.4 12 Noroeste 31 Noroeste 0 945.7 -1.1 29
2020-03-10 13:00:00 19.6 11 Nordeste 22 Norte 0 946.3 -0.5 28
2020-03-10 12:00:00 17.2 6 Oeste 17 Oeste 0 946.6 0.1 32
2020-03-10 11:00:00 15.9 2 Sudeste 10 Oeste 0 946.8 1 33
2020-03-10 10:00:00 12.2 4 Sudeste 24 Este 0 946.8 1.5 47
2020-03-10 09:00:00 6.8 10 Sudeste 22 Este 0 946.5 1.5 61
2020-03-10 08:00:00 3.2 5 Oeste 19 Oeste 0 945.8 0.7 70
2020-03-10 07:00:00 2.3 4 Oeste 16 Oeste 0 945.3 0.2 72
2020-03-10 06:00:00 2.7 6 Sudoeste 19 Oeste 0 945 -0.4 69
2020-03-10 05:00:00 2.2 9 Oeste 21 Oeste 0 945.1 -0.4 71
2020-03-10 04:00:00 4.1 8 Sudeste 17 Este 0 945.1 -0.5 63
2020-03-10 03:00:00 4.8 7 Sudoeste 12 Oeste 0 945.4 -0.4 61
2020-03-10 02:00:00 5.6 10 Sudoeste 21 Oeste 0 945.5 0 58
2020-03-10 01:00:00 5.5 6 Oeste 21 Oeste 0 945.6 0.6 57
2020-03-10 00:00:00 6.9 4 Oeste 10 Noroeste 0 945.8 1.2 55
2020-03-09 23:00:00 7.6 7 Noroeste 19 Noroeste 0 945.5 1.6 52
2020-03-09 22:00:00 9.5 13 Noroeste 22 Noroeste 0 945 1.6 46
2020-03-09 21:00:00 10.1 13 Noroeste 24 Noroeste 0 944.6 1.1 41
2020-03-09 20:00:00 12.4 13 Noroeste 28 Norte 0 943.9 0.8 33
2020-03-09 19:00:00 14.8 16 Noroeste -- -- 0 943.4 0 31
2020-03-09 18:00:00 17.1 20 Noroeste 34 Oeste 0 943.5 -0.7 28
2020-03-09 17:00:00 17.8 19 Noroeste -- -- 0 943.1 -1.5 25
2020-03-09 16:00:00 17.2 22 Noroeste 43 Oeste 0 943.4 -2 24
2020-03-09 15:00:00 16.5 19 Noroeste 39 Oeste 0 944.2 -1.7 26
2020-03-09 14:00:00 15.1 16 Noroeste 41 Oeste 0 944.6 -1.1 38
2020-03-09 13:00:00 13.7 21 Noroeste 40 Oeste 0 945.4 0.2 40
2020-03-09 12:00:00 12.4 21 Noroeste 42 Oeste 0 945.9 1.1 42
2020-03-09 11:00:00 11.1 14 Noroeste 32 Oeste 0 945.7 1.6 49
2020-03-09 10:00:00 9.8 16 Noroeste 30 Oeste 0 945.2 1.2 62
2020-03-09 09:00:00 6.5 6 Oeste 23 Oeste 0 944.8 1.1 77
2020-03-09 08:00:00 5.6 9 Oeste 23 Oeste 0 944.1 0.1 79
2020-03-09 07:00:00 5.6 7 Sudoeste 27 Oeste 0 944 0.4 81
2020-03-09 06:00:00 4.4 15 Oeste 25 Oeste 0 943.7 -0.2 85
2020-03-09 05:00:00 5.9 7 Oeste 21 Noroeste 0 944 -0.2 81
2020-03-09 04:00:00 6.5 13 Noroeste 24 Noroeste 0 943.6 -0.6 80
2020-03-09 03:00:00 7 10 Noroeste 20 Noroeste 0 943.9 -0.1 75
2020-03-09 02:00:00 7 12 Noroeste 28 Noroeste 0 944.2 -0.2 73
2020-03-09 01:00:00 6.9 4 Norte 26 Oeste 0 944.2 0.2 70
2020-03-09 00:00:00 7.6 8 Noroeste 31 Oeste 0 944 0.2 69
2020-03-08 23:00:00 8.5 12 Oeste 18 Noroeste 0 944.4 1 66
2020-03-08 22:00:00 10.9 15 Noroeste 28 Noroeste 0 944 0.9 59
2020-03-08 21:00:00 12.5 15 Noroeste 24 Norte 0 943.8 0.8 53
2020-03-08 20:00:00 13 13 Norte 26 Norte 0 943.4 0.5 45
2020-03-08 19:00:00 15.2 18 Norte 31 Norte 0 943.1 0.5 37
2020-03-08 18:00:00 16.4 15 Noroeste 32 Noroeste 0 943 0 28
2020-03-08 17:00:00 17.5 18 Noroeste 40 Noroeste 0 942.9 -0.9 22
2020-03-08 16:00:00 18.7 15 Noroeste 35 Noroeste 0 942.6 -2 24
2020-03-08 15:00:00 18.2 14 Noroeste 30 Noroeste 0 943 -2.2 27
2020-03-08 14:00:00 17 12 Oeste 32 Oeste 0 943.8 -1.5 30
2020-03-08 13:00:00 15.7 11 Oeste 33 Oeste 0 944.6 -0.3 35
2020-03-08 12:00:00 14.2 9 Noroeste 22 Norte 0 945.2 0.9 40
2020-03-08 11:00:00 12.9 4 Sudeste 19 Este 0 945.3 1.1 49
2020-03-08 10:00:00 9.6 8 Sudeste 16 Este 0 944.9 0.9 63
2020-03-08 09:00:00 3.4 3 Sur 14 Sur 0 944.3 0.3 81
2020-03-08 08:00:00 0.8 6 Sudoeste 15 Sur 0 944.2 0.3 82
2020-03-08 07:00:00 -0.6 5 Sudoeste 10 Sudoeste 0 944 0.1 80
2020-03-08 06:00:00 0.1 4 Sudoeste 12 Sudoeste 0 944 -0.1 79
2020-03-08 05:00:00 0.5 8 Sudoeste 17 Oeste 0 943.9 -0.8 80
2020-03-08 04:00:00 0.9 10 Oeste 14 Sudoeste 0 943.9 -1.4 75
2020-03-08 03:00:00 2.5 10 Sudoeste 16 Sudoeste 0 944.1 -1 73
2020-03-08 02:00:00 2.8 9 Oeste 23 Oeste 0 944.7 -0.7 72
2020-03-08 01:00:00 3 10 Oeste 20 Sudoeste 0 945.3 0.5 71
2020-03-08 00:00:00 4.7 6 Sudoeste 19 Sudoeste 0 945.1 0.6 66
2020-03-07 23:00:00 5.3 9 Oeste 21 Oeste 0 945.4 1.2 65
2020-03-07 22:00:00 5.5 7 Oeste 21 Oeste 0 944.8 1 63
2020-03-07 21:00:00 7.2 5 Noroeste 12 Noroeste 0 944.5 1.1 56
2020-03-07 20:00:00 9.3 8 Noroeste 16 Noroeste 0 944.2 1 53
2020-03-07 19:00:00 11.9 10 Noroeste 27 Noroeste 0 943.8 0.4 44
2020-03-07 18:00:00 13.7 19 Noroeste 35 Norte 0 943.4 -0.4 37
2020-03-07 17:00:00 15.1 19 Noroeste 36 Noroeste 0 943.2 -1.1 35
2020-03-07 16:00:00 14.6 21 Norte 43 Norte 0 943.4 -1.7 35
2020-03-07 15:00:00 13.4 17 Norte 42 Norte 0 943.8 -1.6 37
2020-03-07 14:00:00 12.7 20 Norte 41 Norte 0 944.3 -1.4 38
2020-03-07 13:00:00 11.9 17 Noroeste 35 Oeste 0 945.1 -0.4 42
2020-03-07 12:00:00 11.2 16 Noroeste 36 Noroeste 0 945.4 0.5 46
2020-03-07 11:00:00 9.5 22 Noroeste 33 Noroeste 0 945.7 1.3 51
2020-03-07 10:00:00 8.1 23 Noroeste 34 Noroeste 0 945.5 1.5 53
2020-03-07 09:00:00 4.9 17 Noroeste 24 Noroeste 0 944.9 1.3 58
2020-03-07 08:00:00 1.5 15 Oeste 21 Oeste 0 944.4 0.9 68
2020-03-07 07:00:00 2.6 13 Noroeste 24 Oeste 0 944 0.9 65
2020-03-07 06:00:00 2.1 15 Oeste 21 Noroeste 0 943.6 0.1 67
2020-03-07 05:00:00 2.3 15 Noroeste 24 Noroeste 0 943.5 0.2 62
2020-03-07 04:00:00 2.2 12 Noroeste 18 Noroeste 0 943.1 0.4 64
2020-03-07 03:00:00 3.7 12 Noroeste 32 Noroeste 0 943.5 0.9 58
2020-03-07 02:00:00 5.5 22 Noroeste 32 Noroeste 0 943.3 1 51
2020-03-07 01:00:00 6.3 18 Noroeste 30 Noroeste 0 942.7 1.1 46
2020-03-07 00:00:00 6.8 18 Noroeste 45 Noroeste 0 942.6 1.7 42
2020-03-06 23:00:00 7.6 25 Noroeste 46 Noroeste 0 942.3 1.9 47
2020-03-06 22:00:00 6.7 17 Noroeste 30 Noroeste 0 941.6 1.7 50
2020-03-06 21:00:00 6.5 12 Noroeste 22 Noroeste 0 940.9 2.1 41
2020-03-06 20:00:00 8.3 18 Noroeste 44 Noroeste 0 940.4 1.9 37
2020-03-06 19:00:00 10.5 26 Noroeste 52 Noroeste 0 939.9 2 33
2020-03-06 18:00:00 11.3 33 Noroeste 53 Noroeste 0 938.8 0.4 32
2020-03-06 17:00:00 11.5 28 Noroeste 67 Noroeste 0 938.5 -0.4 32
2020-03-06 16:00:00 12.3 39 Noroeste 61 Noroeste 0 937.9 -0.7 31
2020-03-06 15:00:00 12 35 Noroeste 66 Noroeste 0 938.4 0 31
2020-03-06 14:00:00 10.7 32 Noroeste 57 Noroeste 0 938.9 1.4 31
2020-03-06 13:00:00 11.6 37 Noroeste 63 Noroeste 0 938.6 1.6 33
2020-03-06 12:00:00 9.7 33 Noroeste 63 Oeste 0 938.4 2 40
2020-03-06 11:00:00 10.5 34 Noroeste 60 Oeste 0 937.5 1.5 50
2020-03-06 10:00:00 8.8 39 Oeste 60 Oeste 0 937 1.2 60
2020-03-06 09:00:00 6.2 23 Oeste 39 Oeste 0 936.4 1 77
2020-03-06 08:00:00 4.5 14 Sudoeste 25 Oeste 0 936 0.7 79
2020-03-06 07:00:00 3.7 14 Oeste 29 Oeste 0 935.8 0.2 78
2020-03-06 06:00:00 4.8 18 Oeste 33 Sudoeste 0 935.4 -0.7 74
2020-03-06 05:00:00 4.5 19 Sudoeste 32 Oeste 0 935.3 -0.9 74
2020-03-06 04:00:00 5.3 20 Oeste 35 Oeste 0 935.6 -0.6 66
2020-03-06 03:00:00 5 17 Oeste 28 Oeste 0 936.1 0 71
2020-03-06 02:00:00 5.7 18 Oeste 30 Oeste 0 936.2 0.2 69
2020-03-06 01:00:00 6.9 15 Oeste 30 Oeste 0 936.2 0.7 67
2020-03-06 00:00:00 7.6 19 Oeste 30 Oeste 0 936.1 1.1 67
2020-03-05 23:00:00 7 13 Oeste 21 Oeste 0 936 1.2 71
2020-03-05 22:00:00 8.5 14 Oeste 23 Sudoeste 0 935.5 1.3 65
2020-03-05 21:00:00 9.7 13 Sudoeste 30 Oeste 0 935 1.5 58
2020-03-05 20:00:00 10.6 14 Oeste 42 Oeste 0 934.8 1.7 53
2020-03-05 19:00:00 12.5 24 Oeste 46 Oeste 0 934.2 1.2 46
2020-03-05 18:00:00 14.2 30 Oeste 63 Oeste 0 933.5 1.1 42
2020-03-05 17:00:00 15.1 39 Oeste 64 Oeste 0 933.1 0.4 39
2020-03-05 16:00:00 15.5 36 Oeste 66 Oeste 0 933 -0.6 38
2020-03-05 15:00:00 16 34 Oeste 61 Oeste 0 932.4 -1.7 45
2020-03-05 14:00:00 14.6 34 Oeste 59 Oeste 0 932.7 -1.7 64
2020-03-05 13:00:00 13.1 31 Oeste 51 Sudoeste 0 933.6 -0.4 69
2020-03-05 12:00:00 11.8 28 Sudoeste 54 Sudoeste 0 934.1 0.1 77
2020-03-05 11:00:00 12 29 Sudoeste 57 Oeste 0 934.4 0 70
2020-03-05 10:00:00 12.7 32 Sudoeste 52 Sudoeste 0 934 -0.3 68
2020-03-05 09:00:00 11.1 24 Sudoeste 39 Sudoeste 0 934 -1.1 77
2020-03-05 08:00:00 9.9 18 Sudoeste 30 Oeste 0 934.4 -1.1 85
2020-03-05 07:00:00 9.6 10 Sudoeste 30 Sudoeste 0 934.3 -2 85
2020-03-05 06:00:00 10.2 11 Sudoeste 30 Sudoeste 0 935.1 -2.1 83
2020-03-05 05:00:00 9.5 14 Sudoeste 29 Sudoeste 0 935.5 -2.5 83
2020-03-05 04:00:00 9.5 15 Sudoeste 28 Sudoeste 0 936.3 -2.1 83
2020-03-05 03:00:00 9.4 11 Sudoeste 29 Sudoeste 0 937.2 -1.8 82
2020-03-05 02:00:00 8.8 15 Sudoeste 25 Sudoeste 0 938 -1.5 84
2020-03-05 01:00:00 9.6 14 Sudoeste 26 Sudoeste 0 938.4 -1.3 81
2020-03-05 00:00:00 9.9 13 Sudoeste 23 Sudoeste 0 939 -0.6 80
2020-03-04 23:00:00 10.3 13 Sudoeste 22 Oeste 0 939.5 0.1 78
2020-03-04 22:00:00 9.9 8 Sudoeste 21 Sudoeste 0 939.7 0.3 75
2020-03-04 21:00:00 11.1 10 Sudoeste 28 Sudoeste 0 939.6 0.3 71
2020-03-04 20:00:00 12.9 18 Sudoeste 31 Sudoeste 0 939.4 0.2 64
2020-03-04 19:00:00 14 21 Sudoeste 31 Sudoeste 0 939.4 0.1 61
2020-03-04 18:00:00 14.9 14 Sudoeste 40 Oeste 0 939.3 -0.6 59
2020-03-04 17:00:00 15.9 18 Noroeste 43 Oeste 0 939.2 -1.2 50
2020-03-04 16:00:00 16.2 18 Oeste 40 Oeste 0 939.3 -2 52
2020-03-04 15:00:00 15.7 18 Oeste 42 Oeste 0 939.9 -1.8 53
2020-03-04 14:00:00 16.3 21 Oeste 41 Oeste 0 940.4 -1.3 49
2020-03-04 13:00:00 15.1 18 Oeste 41 Oeste 0 941.3 -0.2 54
2020-03-04 12:00:00 13.7 20 Oeste 38 Oeste 0 941.7 0.3 60
2020-03-04 11:00:00 13.2 17 Oeste 37 Oeste 0 941.7 1.1 69
2020-03-04 10:00:00 12.8 15 Oeste 35 Oeste 0 941.5 1.1 74
2020-03-04 09:00:00 11.8 9 Oeste 22 Oeste 0 941.4 1 80
2020-03-04 08:00:00 11.4 12 Sudoeste 29 Sudoeste 0 940.6 0.4 81
2020-03-04 07:00:00 11.2 8 Oeste 24 Sudoeste 0 940.4 0.1 84
2020-03-04 06:00:00 10.7 12 Oeste 26 Sudoeste 0 940.4 -0.3 85
2020-03-04 05:00:00 11.1 19 Oeste 35 Oeste 0 940.2 -0.4 83
2020-03-04 04:00:00 11.3 19 Oeste 30 Sudoeste 0 940.3 0.2 84
2020-03-04 03:00:00 11.1 18 Oeste 30 Sudoeste 0 940.7 0.2 85
2020-03-04 02:00:00 11.4 18 Sudoeste 37 Sudoeste 0 940.6 0.5 82
2020-03-04 01:00:00 11.6 22 Sudoeste 36 Sudoeste 0 940.1 0.5 83
2020-03-04 00:00:00 11.8 18 Sudoeste 30 Oeste 0 940.5 1.3 83
2020-03-03 23:00:00 11.7 18 Sudoeste 37 Sudoeste 0 940.1 1.3 82
2020-03-03 22:00:00 12.3 21 Oeste 43 Oeste 0 939.6 1.6 80
2020-03-03 21:00:00 12.1 25 Oeste 51 Oeste 0 939.2 1.8 79
2020-03-03 20:00:00 12.1 24 Oeste 48 Oeste 0 938.8 1.5 78
2020-03-03 19:00:00 12.3 26 Oeste 52 Oeste 0 938 1 76
2020-03-03 18:00:00 13.1 32 Oeste 58 Oeste 0 937.4 0.3 70
2020-03-03 17:00:00 13.6 32 Oeste 59 Oeste 0 937.3 -0.1 68
2020-03-03 16:00:00 13.7 37 Oeste 67 Oeste 0 937 -1 66
2020-03-03 15:00:00 13.2 37 Oeste 64 Oeste 0 937.1 -0.7 65
2020-03-03 14:00:00 14 33 Oeste 59 Oeste 0 937.4 -0.6 60
2020-03-03 13:00:00 13.5 32 Oeste 53 Sudoeste 0 938 -0.2 57
2020-03-03 12:00:00 12.1 28 Sudoeste 46 Sudoeste 0 937.8 -- 60
2020-03-03 11:00:00 11.3 24 Oeste 43 Sudoeste 0 938 0.1 59
2020-03-03 10:00:00 8.3 23 Sudoeste -- -- -- 938.2 0.6 70
2020-03-03 09:00:00 -- -- -- -- -- -- -- -- --
2020-03-03 08:00:00 5.5 -- -- -- -- 0 937.9 0 78
2020-03-03 07:00:00 5 -- -- -- -- 0 937.6 -1 76
2020-03-03 06:00:00 4.9 -- -- -- -- 0 938 -0.6 73
2020-03-03 05:00:00 4.5 13 Sudoeste 22 Sudoeste 0 937.9 -1.2 72
2020-03-03 04:00:00 4.1 16 Sudoeste 31 Oeste 0 938.6 -0.1 74
2020-03-03 03:00:00 4.7 18 Sudoeste 33 Oeste 0 938.6 -0.3 73
2020-03-03 02:00:00 5.1 19 Oeste 33 Oeste 0 939.1 0.5 71
2020-03-03 01:00:00 4.9 -- -- -- -- 0 938.7 0.7 71
2020-03-03 00:00:00 5.5 20 Sudoeste 32 Oeste 0 938.9 1.7 64
2020-03-02 23:00:00 4.6 11 Sudoeste 23 Oeste 0 938.6 2.3 64
2020-03-02 22:00:00 4.7 12 Oeste 17 Oeste 0 938 2.6 62
2020-03-02 21:00:00 5.8 13 Oeste 26 Oeste 0 937.2 3.5 61
2020-03-02 20:00:00 6.8 11 Noroeste 33 Noroeste 0 936.3 4.2 54
2020-03-02 19:00:00 9.1 25 Noroeste 46 Noroeste 0 935.4 5 45
2020-03-02 18:00:00 9 26 Noroeste 77 Oeste 0 933.7 3.8 54
2020-03-02 17:00:00 12.3 53 Oeste 88 Oeste 0 932.1 2.6 38
2020-03-02 16:00:00 13.6 58 Oeste 89 Oeste 0 930.4 0.7 34
2020-03-02 15:00:00 13.3 55 Oeste 85 Oeste 0 929.9 0.4 40
2020-03-02 14:00:00 14.1 51 Oeste 80 Oeste 0 929.5 0.5 38
2020-03-02 13:00:00 14.2 46 Oeste 72 Oeste 0 929.7 1.9 38
2020-03-02 12:00:00 13.3 46 Oeste 82 Oeste 0 929.5 2.7 42
2020-03-02 11:00:00 13.3 39 Oeste 83 Oeste 0 929 4 40
2020-03-02 10:00:00 12.5 38 Oeste 84 Oeste 0 927.8 3.1 54
2020-03-02 09:00:00 12.3 34 Oeste -- -- 0 926.8 2.3 67
2020-03-02 08:00:00 11.3 36 Sudoeste 73 Sudoeste 0 925 0.1 81
2020-03-02 07:00:00 10.8 42 Sudoeste 76 Oeste 0 924.7 -2.6 82
2020-03-02 06:00:00 11.1 49 Sudoeste -- -- 0 924.5 -3.6 79
2020-03-02 05:00:00 10.7 -- -- -- -- 0.2 924.9 -3.7 84
2020-03-02 04:00:00 10.9 38 Sudoeste 69 Sudoeste 0 927.3 -1.9 79
2020-03-02 03:00:00 11.3 37 Sudoeste 69 Sudoeste 0 928.1 -2.4 80
2020-03-02 02:00:00 12 46 Sudoeste 82 Sudoeste 0 928.6 -2.4 75
2020-03-02 01:00:00 11.7 37 Sudoeste 64 Sudoeste 0 929.2 -3.1 81
2020-03-02 00:00:00 11.6 33 Sudoeste 59 Sudoeste 0 930.5 -2.3 82
2020-03-01 23:00:00 11.8 26 Sudoeste 55 Sudoeste 0 931 -2.4 78
2020-03-01 22:00:00 11.3 21 Sudoeste 39 Sur 0 932.3 -1.2 82
2020-03-01 21:00:00 11.3 19 Sur 41 Sur 0.2 932.8 -0.7 81
2020-03-01 20:00:00 11.8 14 Sudoeste 34 Sudoeste 0 933.4 -0.6 80
2020-03-01 19:00:00 12.3 20 Sudoeste 48 Sudoeste 0 933.5 -0.5 77
2020-03-01 18:00:00 13.3 30 Sudoeste 51 Sudoeste 0 933.5 -1.3 65
2020-03-01 17:00:00 13.5 27 Sudoeste 51 Sudoeste 0 934 -1.6 67
2020-03-01 16:00:00 15.4 25 Sudoeste 49 Sudoeste 0 934 -2.2 55
2020-03-01 15:00:00 13.1 24 Sudoeste 50 Oeste 0 934.8 -1.8 67
2020-03-01 14:00:00 12.7 22 Sudoeste 48 Sudoeste 0 935.6 -0.9 68
2020-03-01 13:00:00 12.2 22 Sudoeste 46 Sudoeste 0 936.2 -0.2 68
2020-03-01 12:00:00 11.3 28 Sudoeste 53 Sudoeste 0 936.6 0.7 70
2020-03-01 11:00:00 10.7 26 Sudoeste 48 Sudoeste 0 936.5 1.1 73
2020-03-01 10:00:00 9.6 23 Sudoeste 46 Sudoeste 0 936.4 1.5 78
2020-03-01 09:00:00 9.4 23 Sudoeste 36 Sudoeste 0 935.9 1.6 75
2020-03-01 08:00:00 9 24 Sudoeste 40 Sudoeste 0 935.4 1 78
2020-03-01 07:00:00 8.5 22 Sudoeste 39 Sudoeste 0 934.9 0.1 77
2020-03-01 06:00:00 8.7 20 Sudoeste 34 Sudoeste 0 934.3 -0.6 76
2020-03-01 05:00:00 8.2 16 Sudoeste 31 Oeste 0 934.4 -0.4 78
2020-03-01 04:00:00 8.9 19 Oeste 39 Oeste 0 934.8 -0.4 74
2020-03-01 03:00:00 9.4 19 Oeste 38 Oeste 0 934.9 -0.5 67
2020-03-01 02:00:00 9.6 27 Oeste 41 Oeste 0 934.8 -0.7 69
2020-03-01 01:00:00 9.4 11 Oeste 32 Oeste 0 935.2 0 78
2020-03-01 00:00:00 9.9 20 Sudoeste 37 Oeste 0 935.4 0.4 76
2020-02-29 23:00:00 10.2 16 Sudoeste 30 Oeste 0 935.5 0.9 80
2020-02-29 22:00:00 10.8 16 Sudoeste 30 Sudoeste 0 935.2 0.8 78
2020-02-29 21:00:00 11.3 12 Sudoeste 37 Sudoeste 0 935 0.6 82
2020-02-29 20:00:00 11.9 21 Sudoeste 40 Sudoeste 0 934.6 0.3 80
2020-02-29 19:00:00 12 19 Sudoeste 34 Oeste 0 934.4 0.5 79
2020-02-29 18:00:00 12 21 Oeste 45 Sudoeste 0 934.4 0.2 80
2020-02-29 17:00:00 13.2 26 Oeste 56 Oeste 0 934.3 -0.5 66
2020-02-29 16:00:00 14.5 27 Oeste 55 Oeste 0 933.9 -1.7 60
2020-02-29 15:00:00 12.4 32 Sudoeste 51 Sudoeste 0 934.2 -1.7 65
2020-02-29 14:00:00 12.8 29 Oeste 48 Sudoeste 0 934.8 -1.5 61
2020-02-29 13:00:00 12.3 23 Sudoeste 52 Oeste 0 935.6 -0.4 62
2020-02-29 12:00:00 12 26 Sudoeste 54 Sudoeste 0 935.9 0.4 63
2020-02-29 11:00:00 10 34 Sudoeste 61 Sudoeste 0 936.3 1.1 69
2020-02-29 10:00:00 9.6 30 Sudoeste 46 Sudoeste 0 936 0.7 64
2020-02-29 09:00:00 8.3 32 Sudoeste 41 Sudoeste 0 935.5 0.6 68
2020-02-29 08:00:00 7.3 20 Sudoeste 31 Sudoeste 0 935.2 0.2 71
2020-02-29 07:00:00 6.7 15 Oeste 26 Sudoeste 0 935.3 0.3 73
2020-02-29 06:00:00 7.6 9 Sudoeste 26 Sudoeste 0 934.9 -0.6 70
2020-02-29 05:00:00 8.7 17 Sudoeste 25 Sudoeste 0 935 -0.6 66
2020-02-29 04:00:00 10 5 Sudoeste 13 Oeste 0 935 -0.8 63
2020-02-29 03:00:00 10 2 Sudeste 22 Sudoeste 0 935.5 -0.9 59
2020-02-29 02:00:00 11.1 12 Sudoeste 40 Sudoeste 0 935.6 -1.1 54
2020-02-29 01:00:00 12.2 18 Sudoeste 39 Sudoeste 0 935.8 -0.9 45
2020-02-29 00:00:00 10.6 14 Sudoeste 25 Sudoeste 0 936.4 -0.2 48
2020-02-28 23:00:00 9.7 3 Sur 12 Sudeste 0 936.7 -0.2 50
2020-02-28 22:00:00 11.3 8 Sudoeste 14 Sudoeste 0 936.7 -0.2 45
2020-02-28 21:00:00 11.7 8 Sudoeste 14 Sudoeste 0 936.6 -0.4 44
2020-02-28 20:00:00 13.2 9 Sudoeste 18 Sur 0 936.9 -0.6 37
2020-02-28 19:00:00 16.1 9 Sudoeste 27 Sur 0 936.9 -1.3 29
2020-02-28 18:00:00 18.4 14 Sur 30 Sudeste 0 937 -1.9 26
2020-02-28 17:00:00 19 12 Sudeste 24 Sur 0 937.5 -2.7 23
2020-02-28 16:00:00 18.9 10 Sudeste 26 Sudeste 0 938.2 -2.9 24
2020-02-28 15:00:00 18.3 11 Sudeste 24 Sudeste 0 938.9 -2.6 26
2020-02-28 14:00:00 17.7 9 Sudeste 22 Sudeste 0 940.2 -1.8 28
2020-02-28 13:00:00 16.5 4 Sudeste 32 Este 0 941.1 -1.4 32
2020-02-28 12:00:00 14.9 6 Sudeste 23 Este 0 941.5 -0.6 39
2020-02-28 11:00:00 12.3 5 Este 22 Este 0 942 0.2 48
2020-02-28 10:00:00 8.3 5 Este 17 Nordeste 0 942.5 0.6 66
2020-02-28 09:00:00 4.2 3 Noroeste 19 Sur 0 942.1 0.4 76
2020-02-28 08:00:00 2 6 Sudoeste 18 Este 0 941.8 -0.3 78
2020-02-28 07:00:00 2 3 Sudoeste 18 Sur 0 941.9 -0.3 79
2020-02-28 06:00:00 2.3 5 Norte 19 Este 0 941.7 -1.2 80
2020-02-28 05:00:00 2.2 5 Sudeste 19 Sudoeste 0 942.1 -1.2 79
2020-02-28 04:00:00 3.8 7 Sudoeste 19 Sudeste 0 942.2 -0.8 76
2020-02-28 03:00:00 4.3 8 Oeste 18 Oeste 0 942.9 -0.4 75
2020-02-28 02:00:00 7.1 5 Sur 22 Este 0 943.3 -0.1 70
2020-02-28 01:00:00 6.9 9 Sur 30 Oeste 0 943 -0.1 70
2020-02-28 00:00:00 7.9 9 Oeste 20 Oeste 0 943.3 0.6 67